Time;durP1;ratioP1;P1;durP2;ratioP2;P2;SDS_P1;SDS_P2;PMS_P1;PMS_P2;Temp;Humidity;BMP_temperature;BMP_pressure;BME280_temperature;BME280_humidity;BME280_pressure;Samples;Min_cycle;Max_cycle;Signal;HPM_P1;HPM_P2
2021/10/02 00:30:59;;;;;;;3.17;2.27;;;14.20;99.90;;;;;;4998428;28;20438;-70
2021/10/02 00:45:50;;;;;;;1.70;1.60;;;14.00;99.90;;;;;;4997329;28;20394;-69
2021/10/02 00:48:16;;;;;;;1.80;1.70;;;14.00;99.90;;;;;;4996865;28;20863;-70
2021/10/02 00:50:44;;;;;;;1.97;1.80;;;14.00;99.90;;;;;;5000014;28;20239;-70
2021/10/02 00:53:10;;;;;;;2.80;1.83;;;14.00;99.90;;;;;;5000131;28;20462;-70
2021/10/02 00:55:35;;;;;;;1.90;1.80;;;14.00;99.90;;;;;;5001424;28;20399;-71
2021/10/02 00:58:01;;;;;;;1.73;1.63;;;14.00;99.90;;;;;;4998260;28;20270;-70
2021/10/02 01:00:27;;;;;;;1.70;1.60;;;14.00;99.90;;;;;;4999769;28;20169;-70
2021/10/02 01:03:08;;;;;;;2.13;1.93;;;14.00;99.90;;;;;;4999131;28;20519;-69
2021/10/02 01:06:06;;;;;;;1.80;1.70;;;14.00;99.90;;;;;;4977295;28;20423;-70
2021/10/02 01:08:46;;;;;;;2.20;2.10;;;14.00;99.90;;;;;;4976168;28;20484;-70
2021/10/02 01:11:32;;;;;;;2.07;1.90;;;14.00;99.90;;;;;;4977300;28;20866;-70
2021/10/02 01:14:31;;;;;;;2.70;1.97;;;14.00;99.90;;;;;;4982578;28;21198;-70
2021/10/02 01:17:05;;;;;;;2.50;2.30;;;14.00;99.90;;;;;;4996414;28;20510;-70
2021/10/02 01:19:56;;;;;;;3.43;2.60;;;14.00;99.90;;;;;;4997553;28;20427;-70
2021/10/02 01:22:52;;;;;;;2.50;2.30;;;14.00;99.90;;;;;;4997707;28;20395;-70
2021/10/02 01:25:30;;;;;;;2.87;2.57;;;14.00;99.90;;;;;;4998639;28;20780;-70
2021/10/02 01:27:59;;;;;;;2.43;2.23;;;14.00;99.90;;;;;;5010384;28;20444;-71
2021/10/02 01:47:13;;;;;;;2.80;2.37;;;14.00;99.90;;;;;;4995569;28;20770;-71
2021/10/02 01:49:58;;;;;;;3.07;2.40;;;14.00;99.90;;;;;;4995899;28;20459;-70
2021/10/02 01:52:37;;;;;;;2.30;2.20;;;14.00;99.90;;;;;;4995379;28;20391;-70
2021/10/02 01:55:05;;;;;;;4.67;2.90;;;14.00;99.90;;;;;;4995754;28;20428;-70
2021/10/02 01:57:37;;;;;;;2.50;2.40;;;14.00;99.90;;;;;;4995008;28;20455;-71
2021/10/02 02:00:08;;;;;;;3.30;3.10;;;14.00;99.90;;;;;;4995714;28;20412;-70
2021/10/02 02:02:35;;;;;;;3.10;2.80;;;14.00;99.90;;;;;;4995745;28;20446;-70
2021/10/02 02:05:05;;;;;;;2.57;2.37;;;14.00;99.90;;;;;;4995349;28;20418;-71
2021/10/02 02:07:32;;;;;;;3.00;2.80;;;14.00;99.90;;;;;;4994942;28;20521;-70
2021/10/02 02:09:59;;;;;;;3.70;3.40;;;14.00;99.90;;;;;;4995210;28;20455;-70
2021/10/02 02:12:32;;;;;;;3.40;3.20;;;14.00;99.90;;;;;;4995689;28;20415;-70
2021/10/02 02:15:02;;;;;;;3.40;3.20;;;14.00;99.90;;;;;;4995320;28;20526;-69
2021/10/02 02:17:28;;;;;;;3.30;3.10;;;14.10;99.90;;;;;;4995041;28;20439;-69
2021/10/02 02:19:56;;;;;;;3.87;3.60;;;14.10;99.90;;;;;;4995465;28;20510;-70
2021/10/02 02:22:23;;;;;;;3.50;3.20;;;14.10;99.90;;;;;;4995609;28;20462;-70
2021/10/02 02:24:48;;;;;;;4.00;3.70;;;14.00;99.90;;;;;;4995260;28;20507;-70
2021/10/02 02:27:14;;;;;;;3.50;3.20;;;14.00;99.90;;;;;;4994859;28;20507;-70
2021/10/02 02:29:40;;;;;;;3.50;3.27;;;14.00;99.90;;;;;;4994565;28;20692;-70
2021/10/02 02:32:06;;;;;;;3.90;3.70;;;14.10;99.90;;;;;;4995282;28;20403;-70
2021/10/02 02:34:32;;;;;;;4.77;3.50;;;14.10;99.90;;;;;;4993556;28;20160;-69
2021/10/02 02:36:58;;;;;;;4.30;3.90;;;14.10;99.90;;;;;;4994275;28;20564;-71
2021/10/02 02:39:25;;;;;;;4.00;3.57;;;14.10;99.90;;;;;;4994876;28;20215;-69
2021/10/02 02:41:51;;;;;;;3.97;3.67;;;14.10;99.90;;;;;;4994727;28;20403;-71
2021/10/02 02:44:16;;;;;;;4.03;3.73;;;14.10;99.90;;;;;;4994870;28;20965;-70
2021/10/02 02:46:47;;;;;;;4.80;3.70;;;14.10;99.90;;;;;;4994600;28;20271;-69
2021/10/02 02:49:37;;;;;;;4.67;3.53;;;14.20;99.90;;;;;;4994686;28;20550;-70
2021/10/02 02:52:07;;;;;;;3.83;3.63;;;14.20;99.90;;;;;;4994296;28;20415;-70
2021/10/02 02:54:49;;;;;;;4.80;3.70;;;14.10;99.90;;;;;;4995277;28;20896;-69
2021/10/02 02:57:18;;;;;;;3.97;3.47;;;14.20;99.90;;;;;;4995649;28;20502;-69
2021/10/02 02:59:50;;;;;;;3.60;3.30;;;14.20;99.90;;;;;;4997996;28;20497;-71
2021/10/02 03:02:20;;;;;;;5.30;2.80;;;14.10;99.90;;;;;;4997626;28;20407;-70
2021/10/02 03:04:47;;;;;;;3.40;2.80;;;14.20;99.90;;;;;;4997652;28;20423;-70
2021/10/02 03:07:18;;;;;;;3.20;2.90;;;14.10;99.90;;;;;;4997515;28;22469;-70
2021/10/02 03:09:47;;;;;;;3.40;3.10;;;14.20;99.90;;;;;;4997653;28;20545;-69
2021/10/02 03:12:14;;;;;;;3.20;2.83;;;14.10;99.90;;;;;;4997611;28;20462;-69
2021/10/02 03:14:45;;;;;;;3.20;2.90;;;14.20;99.90;;;;;;4996966;28;20983;-69
2021/10/02 03:17:13;;;;;;;2.80;2.60;;;14.20;99.90;;;;;;5000686;28;20465;-71
2021/10/02 03:19:39;;;;;;;3.00;2.80;;;14.20;99.90;;;;;;5000446;28;20430;-72
2021/10/02 03:22:08;;;;;;;3.83;2.70;;;14.20;99.90;;;;;;4998953;28;20403;-70
2021/10/02 03:24:39;;;;;;;3.25;2.70;;;14.20;99.90;;;;;;4999849;28;20909;-70
2021/10/02 03:27:09;;;;;;;3.27;3.00;;;14.20;99.90;;;;;;5000611;28;20656;-70
2021/10/02 03:29:36;;;;;;;2.67;2.47;;;14.20;99.90;;;;;;4992750;28;20453;-71
2021/10/02 03:32:07;;;;;;;3.17;2.60;;;14.20;99.90;;;;;;4982369;28;20466;-70
2021/10/02 03:34:33;;;;;;;2.60;2.40;;;14.20;99.90;;;;;;4981604;28;20177;-70
2021/10/02 03:36:59;;;;;;;5.60;2.53;;;14.20;99.90;;;;;;4997863;28;20486;-71
2021/10/02 03:39:24;;;;;;;4.30;2.63;;;14.20;99.90;;;;;;5000680;28;20408;-70
2021/10/02 03:42:15;;;;;;;2.93;2.73;;;14.20;99.90;;;;;;5001815;28;20585;-70
2021/10/02 03:44:46;;;;;;;2.83;2.63;;;14.20;99.90;;;;;;5001534;28;20645;-70
2021/10/02 03:47:13;;;;;;;2.80;2.47;;;14.20;99.90;;;;;;5002042;28;20451;-69
2021/10/02 03:49:39;;;;;;;3.27;2.43;;;14.20;99.90;;;;;;5003282;28;20450;-70
2021/10/02 03:52:06;;;;;;;3.33;2.97;;;14.20;99.90;;;;;;5007616;28;20475;-69
2021/10/02 03:54:33;;;;;;;4.20;2.50;;;14.20;99.90;;;;;;5006230;28;20418;-69
2021/10/02 03:56:59;;;;;;;2.80;2.60;;;14.20;99.90;;;;;;5004991;28;20426;-70
2021/10/02 03:59:25;;;;;;;2.77;2.57;;;14.20;99.90;;;;;;5005294;28;20435;-70
2021/10/02 04:01:51;;;;;;;3.43;2.70;;;14.20;99.90;;;;;;5004676;28;20234;-70
2021/10/02 04:04:16;;;;;;;5.13;3.00;;;14.20;99.90;;;;;;5010097;28;20419;-69
2021/10/02 04:06:42;;;;;;;3.43;3.13;;;14.10;99.90;;;;;;5009473;28;20173;-69
2021/10/02 04:09:07;;;;;;;2.97;2.63;;;14.10;99.90;;;;;;5009835;28;20203;-69
2021/10/02 04:11:33;;;;;;;3.20;2.90;;;14.10;99.90;;;;;;5005911;28;20711;-70
2021/10/02 04:14:00;;;;;;;3.13;2.87;;;14.10;99.90;;;;;;5006221;28;20172;-69
2021/10/02 04:16:26;;;;;;;6.10;3.43;;;14.10;99.90;;;;;;5005463;28;20188;-69
2021/10/02 04:18:51;;;;;;;2.90;2.70;;;14.10;99.90;;;;;;5008192;28;20458;-69
2021/10/02 04:21:17;;;;;;;3.40;3.20;;;14.10;99.90;;;;;;5005096;28;20209;-71
2021/10/02 04:23:43;;;;;;;3.00;2.80;;;14.10;99.90;;;;;;4990062;28;20177;-70
2021/10/02 04:26:08;;;;;;;3.30;2.83;;;14.10;99.90;;;;;;4990994;28;20188;-70
2021/10/02 04:28:34;;;;;;;3.10;2.90;;;14.10;99.90;;;;;;4994367;28;20271;-70
2021/10/02 04:31:03;;;;;;;2.70;2.50;;;14.10;99.90;;;;;;5007233;28;20448;-69
2021/10/02 04:33:29;;;;;;;4.70;2.90;;;14.10;99.90;;;;;;4999131;28;20187;-69
2021/10/02 04:35:54;;;;;;;2.73;2.53;;;14.10;99.90;;;;;;4991515;28;20847;-70
2021/10/02 04:38:20;;;;;;;2.50;2.30;;;14.10;99.90;;;;;;4997177;28;20472;-70
2021/10/02 04:40:45;;;;;;;4.80;3.13;;;14.10;99.90;;;;;;4994584;28;20281;-70
2021/10/02 04:43:11;;;;;;;3.03;2.73;;;14.10;99.90;;;;;;5003405;28;20187;-70
2021/10/02 04:45:37;;;;;;;2.70;2.50;;;14.10;99.90;;;;;;4998021;28;20215;-71
2021/10/02 04:48:02;;;;;;;3.20;2.90;;;14.10;99.90;;;;;;5009709;28;20632;-70
2021/10/02 04:50:32;;;;;;;2.83;2.63;;;14.10;99.90;;;;;;5003238;28;20236;-69
2021/10/02 04:52:58;;;;;;;3.20;2.90;;;14.10;99.90;;;;;;5004260;28;20169;-68
2021/10/02 04:55:24;;;;;;;3.20;2.93;;;14.10;99.90;;;;;;5005043;28;20419;-71
2021/10/02 04:57:50;;;;;;;3.90;3.60;;;14.10;99.90;;;;;;5004867;28;20439;-70
2021/10/02 05:00:16;;;;;;;4.67;4.23;;;14.10;99.90;;;;;;4994023;28;20499;-70
2021/10/02 05:02:41;;;;;;;4.47;3.90;;;14.10;99.90;;;;;;4978247;28;20653;-71
2021/10/02 05:05:07;;;;;;;6.10;4.83;;;14.10;99.90;;;;;;4995773;28;20196;-70
2021/10/02 05:07:33;;;;;;;5.37;4.70;;;14.10;99.90;;;;;;4996404;28;20203;-69
2021/10/02 05:09:58;;;;;;;4.97;4.57;;;14.10;99.90;;;;;;4989865;28;20464;-70
2021/10/02 05:12:24;;;;;;;4.73;4.33;;;14.10;99.90;;;;;;4977549;28;20247;-69
2021/10/02 05:14:49;;;;;;;5.07;4.57;;;14.10;99.90;;;;;;4979797;28;20231;-72
2021/10/02 05:17:15;;;;;;;4.77;4.47;;;14.00;99.90;;;;;;4985656;28;20219;-71
2021/10/02 05:19:44;;;;;;;5.00;4.70;;;14.10;99.90;;;;;;4987731;28;20736;-70
2021/10/02 05:22:14;;;;;;;4.90;4.60;;;14.10;99.90;;;;;;4978092;28;21182;-70
2021/10/02 05:24:43;;;;;;;4.87;4.47;;;14.10;99.90;;;;;;4993201;28;20462;-71
2021/10/02 05:27:10;;;;;;;4.40;4.10;;;14.10;99.90;;;;;;4992728;28;20459;-70
2021/10/02 05:29:38;;;;;;;4.90;4.30;;;14.10;99.90;;;;;;4992898;28;20461;-71
2021/10/02 05:32:06;;;;;;;3.80;3.50;;;14.10;99.90;;;;;;4993546;28;20825;-72
2021/10/02 05:34:31;;;;;;;5.53;3.77;;;14.10;99.90;;;;;;4996537;28;20422;-71
2021/10/02 05:36:57;;;;;;;3.77;3.57;;;14.10;99.90;;;;;;4986175;28;20507;-70
2021/10/02 05:39:23;;;;;;;3.80;3.50;;;14.10;99.90;;;;;;4976212;28;20201;-71
2021/10/02 05:41:49;;;;;;;4.00;3.70;;;14.10;99.90;;;;;;4986315;28;20566;-69
2021/10/02 05:44:15;;;;;;;3.70;3.40;;;14.10;99.90;;;;;;4994746;28;20177;-71
2021/10/02 05:46:40;;;;;;;3.43;3.20;;;14.10;99.90;;;;;;4995708;28;20510;-69
2021/10/02 05:49:06;;;;;;;3.13;2.93;;;14.10;99.90;;;;;;4993704;28;20290;-69
2021/10/02 05:51:32;;;;;;;3.30;3.10;;;14.10;99.90;;;;;;4994924;28;20565;-71
2021/10/02 05:53:57;;;;;;;3.10;2.90;;;14.10;99.90;;;;;;4997155;28;20238;-70
2021/10/02 05:56:24;;;;;;;2.87;2.67;;;14.10;99.90;;;;;;4997169;28;20250;-70
2021/10/02 05:58:51;;;;;;;2.90;2.70;;;14.10;99.90;;;;;;4997811;28;20195;-71
2021/10/02 06:01:16;;;;;;;2.93;2.73;;;14.10;99.90;;;;;;4997405;28;20931;-70
2021/10/02 06:03:42;;;;;;;3.47;3.27;;;14.20;99.90;;;;;;4995739;28;20427;-71
2021/10/02 06:06:08;;;;;;;3.60;3.30;;;14.10;99.90;;;;;;4996944;28;20176;-70
2021/10/02 06:08:33;;;;;;;3.40;3.20;;;14.10;99.90;;;;;;4996031;28;20242;-70
2021/10/02 06:10:59;;;;;;;4.10;3.80;;;14.10;99.90;;;;;;4997527;28;20196;-69
2021/10/02 06:13:24;;;;;;;3.97;3.67;;;14.10;99.90;;;;;;4998815;28;20588;-70
2021/10/02 06:15:50;;;;;;;4.40;3.40;;;14.10;99.90;;;;;;5003895;28;20175;-70
2021/10/02 06:18:16;;;;;;;3.00;2.80;;;14.00;99.90;;;;;;4996534;28;20258;-70
2021/10/02 06:20:41;;;;;;;2.93;2.63;;;14.10;99.90;;;;;;4996514;28;20271;-70
2021/10/02 06:23:07;;;;;;;2.67;2.57;;;14.00;99.90;;;;;;4996579;28;20179;-70
2021/10/02 06:25:34;;;;;;;2.90;2.70;;;14.00;99.90;;;;;;4995860;28;20176;-70
2021/10/02 06:28:00;;;;;;;2.60;2.40;;;13.90;99.90;;;;;;4995891;28;20194;-71
2021/10/02 06:30:25;;;;;;;2.53;2.30;;;14.00;99.90;;;;;;4995914;28;20470;-71
2021/10/02 06:32:51;;;;;;;2.83;2.63;;;14.00;99.90;;;;;;4995852;28;20439;-69
2021/10/02 06:35:16;;;;;;;2.30;2.10;;;14.10;99.90;;;;;;4994869;28;20579;-71
2021/10/02 06:37:44;;;;;;;1.80;1.70;;;14.10;99.90;;;;;;4994709;28;20199;-70
2021/10/02 06:40:11;;;;;;;2.27;2.17;;;14.20;99.90;;;;;;4995071;28;20295;-70
2021/10/02 06:42:37;;;;;;;1.97;1.87;;;14.20;99.90;;;;;;4995137;28;20549;-71
2021/10/02 06:45:05;;;;;;;2.67;2.47;;;14.20;99.90;;;;;;4995418;28;20800;-70
2021/10/02 06:47:31;;;;;;;2.57;2.20;;;14.20;99.90;;;;;;4994934;28;20534;-71
2021/10/02 06:50:00;;;;;;;2.00;1.90;;;14.20;99.90;;;;;;4994722;28;20569;-70
2021/10/02 06:52:27;;;;;;;1.87;1.77;;;14.20;99.90;;;;;;4994555;28;20168;-69
2021/10/02 06:54:54;;;;;;;2.10;2.00;;;14.20;99.90;;;;;;4993516;28;20412;-71
2021/10/02 06:57:20;;;;;;;3.17;1.77;;;14.20;99.90;;;;;;4994666;28;20470;-71
2021/10/02 06:59:46;;;;;;;1.80;1.70;;;14.30;99.90;;;;;;4992997;28;20920;-72
2021/10/02 07:02:12;;;;;;;1.87;1.77;;;14.30;99.90;;;;;;4993929;28;20412;-70
2021/10/02 07:04:37;;;;;;;1.70;1.60;;;14.30;99.90;;;;;;4993010;28;20184;-71
2021/10/02 07:07:04;;;;;;;2.03;1.93;;;14.40;99.90;;;;;;4994467;28;20171;-73
2021/10/02 07:09:29;;;;;;;2.67;1.80;;;14.40;99.90;;;;;;4995202;28;20685;-70
2021/10/02 07:11:55;;;;;;;2.30;2.10;;;14.40;99.90;;;;;;4994667;28;20498;-71
2021/10/02 07:14:21;;;;;;;2.70;2.50;;;14.40;99.90;;;;;;4994099;28;20188;-69
2021/10/02 07:16:47;;;;;;;2.17;2.07;;;14.50;99.90;;;;;;4994413;28;20173;-70
2021/10/02 07:19:13;;;;;;;2.73;1.93;;;14.60;99.90;;;;;;4994877;28;20253;-70
2021/10/02 07:21:39;;;;;;;2.13;2.03;;;14.50;99.90;;;;;;4994818;28;20808;-72
2021/10/02 07:24:05;;;;;;;2.00;1.87;;;14.60;99.90;;;;;;4994515;28;20878;-72
2021/10/02 07:26:30;;;;;;;1.90;1.80;;;14.70;99.90;;;;;;4993423;28;20505;-71
2021/10/02 07:28:56;;;;;;;2.37;2.10;;;14.70;99.90;;;;;;4994572;28;20196;-70
2021/10/02 07:31:22;;;;;;;1.80;1.70;;;14.70;99.90;;;;;;4993665;28;20251;-70
2021/10/02 07:33:48;;;;;;;2.43;2.23;;;14.70;99.90;;;;;;4994732;28;20606;-71
2021/10/02 07:36:18;;;;;;;1.90;1.80;;;14.80;99.90;;;;;;4993963;28;20641;-70
2021/10/02 07:38:45;;;;;;;2.10;1.87;;;14.80;99.90;;;;;;4997171;28;20475;-69
2021/10/02 07:41:13;;;;;;;1.80;1.70;;;14.80;99.90;;;;;;4997299;28;20415;-69
2021/10/02 07:43:41;;;;;;;1.90;1.80;;;14.90;99.90;;;;;;4998382;28;20439;-71
2021/10/02 07:46:12;;;;;;;1.80;1.70;;;14.90;99.90;;;;;;4998891;28;20521;-70
2021/10/02 07:48:40;;;;;;;2.00;1.90;;;14.90;99.90;;;;;;4999417;28;20949;-70
2021/10/02 07:51:06;;;;;;;2.20;2.10;;;14.90;99.90;;;;;;4999541;28;20855;-70
2021/10/02 07:53:32;;;;;;;2.03;1.93;;;14.90;99.90;;;;;;4999184;28;20445;-71
2021/10/02 07:55:59;;;;;;;3.23;2.10;;;14.90;99.90;;;;;;4999807;28;20435;-70
2021/10/02 07:58:25;;;;;;;2.00;1.90;;;14.90;99.90;;;;;;4999952;28;20797;-70
2021/10/02 08:00:55;;;;;;;2.53;2.33;;;15.00;99.90;;;;;;5002535;28;20423;-72
2021/10/02 08:03:21;;;;;;;2.20;2.00;;;14.90;99.90;;;;;;5016154;28;20443;-70
2021/10/02 08:05:47;;;;;;;2.20;2.10;;;15.00;99.90;;;;;;5005020;28;20458;-71
2021/10/02 08:08:18;;;;;;;2.20;2.10;;;15.00;99.90;;;;;;5014197;28;20319;-70
2021/10/02 08:10:45;;;;;;;3.40;2.40;;;15.00;99.90;;;;;;5014143;28;20459;-71
2021/10/02 08:13:12;;;;;;;2.17;2.07;;;15.10;99.90;;;;;;5016724;28;20406;-72
2021/10/02 08:15:43;;;;;;;2.90;2.70;;;15.10;99.90;;;;;;5017013;28;20410;-70
2021/10/02 08:18:16;;;;;;;3.20;2.90;;;15.20;99.90;;;;;;5000188;28;20882;-71
2021/10/02 08:20:44;;;;;;;3.08;2.88;;;15.20;99.90;;;;;;5016070;28;20455;-71
2021/10/02 08:23:11;;;;;;;3.30;2.50;;;15.20;99.90;;;;;;5019045;28;20219;-69
2021/10/02 08:25:38;;;;;;;2.57;2.37;;;15.30;99.90;;;;;;5001858;28;20439;-70
2021/10/02 08:28:04;;;;;;;2.40;2.30;;;15.30;99.90;;;;;;4994103;28;20844;-70
2021/10/02 08:30:31;;;;;;;2.47;2.27;;;15.40;99.90;;;;;;4994008;28;20545;-71
2021/10/02 08:32:58;;;;;;;2.93;2.73;;;15.30;99.90;;;;;;4994579;28;20788;-71
2021/10/02 08:35:24;;;;;;;3.10;2.87;;;15.30;99.90;;;;;;4994378;28;20447;-72
2021/10/02 08:37:50;;;;;;;2.40;2.30;;;15.30;99.90;;;;;;4994417;28;20447;-70
2021/10/02 08:40:17;;;;;;;3.03;2.73;;;15.30;99.90;;;;;;4994538;28;20180;-70
2021/10/02 08:42:44;;;;;;;3.00;2.70;;;15.40;99.90;;;;;;4984535;28;20265;-72
2021/10/02 08:45:13;;;;;;;2.47;2.20;;;15.40;99.90;;;;;;4984848;28;20970;-71
2021/10/02 08:47:45;;;;;;;3.00;2.70;;;15.50;99.90;;;;;;4995730;28;20486;-72
2021/10/02 08:50:15;;;;;;;2.80;2.40;;;15.50;99.90;;;;;;4984160;28;20817;-70
2021/10/02 08:52:41;;;;;;;3.20;2.60;;;15.60;99.90;;;;;;4987927;28;20498;-71
2021/10/02 08:55:08;;;;;;;4.17;2.40;;;15.60;99.90;;;;;;4987388;28;20468;-69
2021/10/02 08:57:37;;;;;;;2.87;2.67;;;15.60;99.90;;;;;;4988524;28;20483;-71
2021/10/02 09:00:11;;;;;;;3.00;2.70;;;15.60;99.90;;;;;;4986873;28;20446;-70
2021/10/02 09:02:38;;;;;;;2.40;2.23;;;15.60;99.90;;;;;;4986411;28;20485;-71
2021/10/02 09:05:06;;;;;;;3.20;2.67;;;15.60;99.90;;;;;;4987833;28;20444;-71
2021/10/02 09:07:35;;;;;;;2.77;2.47;;;15.60;99.90;;;;;;4992321;28;20543;-70
2021/10/02 09:10:05;;;;;;;3.77;3.00;;;15.70;99.90;;;;;;4991292;28;20880;-73
2021/10/02 09:12:32;;;;;;;3.23;2.97;;;15.70;99.90;;;;;;4975324;28;20818;-73
2021/10/02 09:15:02;;;;;;;2.70;2.50;;;15.70;99.90;;;;;;4981448;28;20526;-72
2021/10/02 09:17:28;;;;;;;2.83;2.63;;;15.70;99.90;;;;;;4983847;28;20456;-70
2021/10/02 09:19:54;;;;;;;2.80;2.60;;;15.70;99.90;;;;;;4980860;28;20465;-70
2021/10/02 09:22:21;;;;;;;3.40;3.10;;;15.60;99.90;;;;;;4984025;28;20538;-72
2021/10/02 09:24:48;;;;;;;2.60;2.40;;;15.70;99.90;;;;;;4991891;28;20250;-71
2021/10/02 09:27:18;;;;;;;3.10;2.90;;;15.70;99.90;;;;;;4989277;28;20436;-70
2021/10/02 09:29:46;;;;;;;3.43;3.13;;;15.80;99.90;;;;;;4982830;28;20552;-69
2021/10/02 09:32:15;;;;;;;2.80;2.53;;;15.80;99.90;;;;;;4997076;28;20447;-70
2021/10/02 09:35:16;;;;;;;3.30;3.00;;;15.90;99.90;;;;;;4977318;28;20433;-70
2021/10/02 09:37:45;;;;;;;3.33;2.87;;;16.00;99.90;;;;;;4976705;28;20488;-70
2021/10/02 09:40:22;;;;;;;5.13;3.07;;;16.10;99.90;;;;;;4976557;28;20579;-71
2021/10/02 09:42:53;;;;;;;2.93;2.73;;;16.20;99.90;;;;;;4975209;28;20977;-70
2021/10/02 09:45:28;;;;;;;2.90;2.70;;;16.30;99.90;;;;;;4974191;28;20424;-69
2021/10/02 09:47:59;;;;;;;3.20;3.00;;;16.30;99.90;;;;;;4994548;28;20553;-70
2021/10/02 09:50:32;;;;;;;3.20;3.00;;;16.40;99.90;;;;;;4995555;28;20463;-71
2021/10/02 09:53:12;;;;;;;3.30;3.00;;;16.40;99.90;;;;;;4977112;28;20411;-71
2021/10/02 09:55:40;;;;;;;3.00;2.70;;;16.40;99.90;;;;;;4978181;28;20396;-69
2021/10/02 09:58:12;;;;;;;2.60;2.47;;;16.40;99.90;;;;;;4995949;28;20415;-71
2021/10/02 10:00:42;;;;;;;2.73;2.50;;;16.40;99.90;;;;;;4995086;28;20411;-70
2021/10/02 10:03:13;;;;;;;3.20;2.60;;;16.50;99.90;;;;;;4995915;28;20501;-70
2021/10/02 10:05:42;;;;;;;3.40;3.10;;;16.50;99.90;;;;;;4995593;28;20952;-71
2021/10/02 10:08:13;;;;;;;2.97;2.77;;;16.50;99.90;;;;;;4995922;28;20443;-71
2021/10/02 10:10:41;;;;;;;2.83;2.53;;;16.50;99.90;;;;;;4995589;28;20539;-71
2021/10/02 10:13:16;;;;;;;2.57;2.37;;;16.50;99.90;;;;;;4996488;28;20438;-71
2021/10/02 10:15:49;;;;;;;2.90;2.70;;;16.50;99.90;;;;;;4996909;28;20399;-70
2021/10/02 10:18:24;;;;;;;4.17;3.03;;;16.50;99.90;;;;;;4996113;28;20447;-70
2021/10/02 10:20:54;;;;;;;2.80;2.60;;;16.60;99.90;;;;;;4997258;28;20904;-70
2021/10/02 10:23:34;;;;;;;3.53;3.00;;;16.70;99.90;;;;;;4995646;28;20411;-70
2021/10/02 10:26:11;;;;;;;2.60;2.40;;;16.80;99.90;;;;;;4995998;28;20427;-69
2021/10/02 10:28:40;;;;;;;3.00;2.70;;;16.80;99.90;;;;;;5001589;28;20451;-70
2021/10/02 10:31:25;;;;;;;2.67;2.40;;;16.90;99.90;;;;;;5015078;28;20451;-69
2021/10/02 10:33:53;;;;;;;3.07;2.77;;;17.00;99.90;;;;;;5014936;28;20392;-71
2021/10/02 10:36:20;;;;;;;3.53;2.60;;;17.00;99.90;;;;;;5015548;28;20400;-70
2021/10/02 10:38:48;;;;;;;3.10;2.80;;;17.20;99.90;;;;;;5004890;28;20432;-70
2021/10/02 10:41:14;;;;;;;2.80;2.60;;;17.20;99.90;;;;;;4995619;28;20912;-69
2021/10/02 10:43:40;;;;;;;2.30;2.20;;;17.30;99.90;;;;;;4995119;28;20876;-70
2021/10/02 10:46:08;;;;;;;3.10;2.43;;;17.30;99.90;;;;;;4993784;28;20458;-70
2021/10/02 10:48:34;;;;;;;2.53;2.30;;;17.20;99.90;;;;;;4993807;28;20457;-70
2021/10/02 10:51:04;;;;;;;4.70;2.03;;;17.30;99.90;;;;;;4993676;28;20463;-72
2021/10/02 10:53:40;;;;;;;2.50;1.90;;;17.40;99.90;;;;;;4992310;28;20812;-71
2021/10/02 10:56:08;;;;;;;3.07;2.07;;;17.50;99.90;;;;;;4990919;28;20991;-69
2021/10/02 10:58:34;;;;;;;2.70;2.20;;;17.50;99.90;;;;;;4990840;28;20431;-71
2021/10/02 11:01:03;;;;;;;2.43;2.23;;;17.60;99.90;;;;;;4984178;28;20454;-70
2021/10/02 11:03:47;;;;;;;2.90;2.23;;;17.60;99.90;;;;;;4991229;28;20486;-71
2021/10/02 11:06:15;;;;;;;2.60;2.37;;;17.60;99.90;;;;;;4991666;28;20900;-70
2021/10/02 11:09:01;;;;;;;2.60;2.40;;;17.60;99.90;;;;;;4995040;28;20431;-70
2021/10/02 11:11:49;;;;;;;2.67;2.10;;;17.60;99.90;;;;;;4994231;28;20822;-71
2021/10/02 11:14:16;;;;;;;1.90;1.80;;;17.70;99.90;;;;;;4998401;28;20168;-70
2021/10/02 11:17:08;;;;;;;3.83;2.40;;;17.70;99.90;;;;;;4998530;28;20442;-71
2021/10/02 11:19:42;;;;;;;2.40;2.17;;;17.80;99.90;;;;;;4996954;28;20454;-70
2021/10/02 11:23:07;;;;;;;2.60;2.40;;;17.90;99.90;;;;;;4997563;28;20408;-70
2021/10/02 11:25:33;;;;;;;2.47;1.90;;;18.00;99.90;;;;;;4957193;28;20818;-72
2021/10/02 11:28:37;;;;;;;2.37;2.10;;;18.10;99.90;;;;;;4978414;28;20439;-71
2021/10/02 11:31:12;;;;;;;2.13;1.90;;;18.20;99.90;;;;;;4920993;29;21176;-70
2021/10/02 11:33:43;;;;;;;2.30;2.10;;;18.20;99.90;;;;;;4920811;29;20391;-69
2021/10/02 11:36:27;;;;;;;2.43;1.90;;;18.30;99.90;;;;;;4931672;29;20489;-69
2021/10/02 11:39:09;;;;;;;4.23;2.10;;;18.30;99.90;;;;;;4949573;29;20418;-69
2021/10/02 11:41:37;;;;;;;2.37;1.90;;;18.30;99.90;;;;;;4958738;29;20442;-69
2021/10/02 11:44:03;;;;;;;1.70;1.60;;;18.30;99.90;;;;;;4955569;29;20406;-69
2021/10/02 11:46:28;;;;;;;1.90;1.80;;;18.30;99.90;;;;;;4959481;29;20425;-70
2021/10/02 11:49:10;;;;;;;2.23;1.80;;;18.40;99.90;;;;;;4960005;29;20221;-71
2021/10/02 11:51:36;;;;;;;2.30;1.70;;;18.40;99.90;;;;;;4951773;29;20230;-71
2021/10/02 11:54:07;;;;;;;2.10;1.90;;;18.40;99.90;;;;;;4940866;29;20414;-71
2021/10/02 11:56:35;;;;;;;1.60;1.43;;;18.50;99.90;;;;;;4938673;29;20189;-71
2021/10/02 11:59:02;;;;;;;1.60;1.50;;;18.30;99.90;;;;;;4938409;29;20445;-70
2021/10/02 12:01:31;;;;;;;3.07;1.80;;;18.20;99.90;;;;;;4961046;28;20514;-71
2021/10/02 12:04:03;;;;;;;2.10;1.73;;;18.10;99.90;;;;;;4998422;28;20439;-70
2021/10/02 12:06:31;;;;;;;1.53;1.40;;;18.10;99.90;;;;;;4998277;28;20494;-71
2021/10/02 12:08:58;;;;;;;1.73;1.63;;;18.20;99.90;;;;;;4996007;28;20435;-70
2021/10/02 12:11:24;;;;;;;1.77;1.63;;;18.20;99.90;;;;;;4978349;28;20486;-70
2021/10/02 12:13:55;;;;;;;1.73;1.60;;;18.10;99.90;;;;;;4984865;28;20435;-73
2021/10/02 12:16:23;;;;;;;2.03;1.60;;;18.00;99.90;;;;;;4985003;28;20444;-72
2021/10/02 12:18:59;;;;;;;1.83;1.40;;;18.00;99.90;;;;;;4984807;28;20820;-72
2021/10/02 12:21:32;;;;;;;1.57;1.47;;;18.00;99.90;;;;;;4989456;28;20444;-70
2021/10/02 12:24:03;;;;;;;1.13;1.03;;;18.00;99.90;;;;;;4989655;28;20551;-69
2021/10/02 12:26:32;;;;;;;1.47;1.37;;;18.00;99.90;;;;;;4980404;28;20486;-69
2021/10/02 12:29:04;;;;;;;1.77;1.20;;;18.10;99.90;;;;;;4995035;28;20557;-71
2021/10/02 12:31:51;;;;;;;1.80;1.50;;;18.10;99.90;;;;;;5006101;28;20485;-70
2021/10/02 12:34:20;;;;;;;1.47;1.37;;;18.20;99.90;;;;;;4985197;28;20490;-72
2021/10/02 12:36:49;;;;;;;1.63;1.40;;;18.10;99.90;;;;;;4989352;28;20448;-71
2021/10/02 12:39:17;;;;;;;1.20;1.10;;;18.10;99.90;;;;;;4989460;28;20478;-72
2021/10/02 12:41:45;;;;;;;1.53;1.43;;;18.20;99.90;;;;;;5004182;28;20454;-71
2021/10/02 12:44:16;;;;;;;2.20;1.53;;;18.10;99.90;;;;;;5002795;28;20460;-72
2021/10/02 12:46:41;;;;;;;2.10;1.20;;;18.00;99.90;;;;;;5003193;28;20848;-71
2021/10/02 12:49:07;;;;;;;3.20;1.60;;;18.10;99.90;;;;;;5010960;28;20474;-71
2021/10/02 12:51:33;;;;;;;1.97;1.60;;;18.00;99.90;;;;;;4987880;28;20221;-71
2021/10/02 12:53:58;;;;;;;1.50;1.40;;;18.00;99.90;;;;;;5004003;28;20447;-65
2021/10/02 12:56:24;;;;;;;1.83;1.60;;;18.00;99.90;;;;;;5000387;28;20676;-66
2021/10/02 12:58:49;;;;;;;2.50;1.40;;;18.30;99.90;;;;;;5003208;28;20303;-65
2021/10/02 13:01:18;;;;;;;1.83;1.60;;;18.50;99.90;;;;;;5007241;28;20424;-69
2021/10/02 13:03:43;;;;;;;1.50;1.40;;;18.60;99.90;;;;;;5010690;28;20250;-72
2021/10/02 13:06:09;;;;;;;2.27;1.27;;;18.60;99.90;;;;;;4995689;28;20904;-63
2021/10/02 13:08:34;;;;;;;1.83;1.40;;;18.70;99.90;;;;;;4993174;28;20226;-67
2021/10/02 13:11:00;;;;;;;1.93;1.40;;;18.90;99.90;;;;;;4993943;28;20239;-63
2021/10/02 13:13:26;;;;;;;3.10;1.53;;;18.90;99.90;;;;;;4997207;28;20238;-69
2021/10/02 13:15:57;;;;;;;2.33;1.90;;;19.00;99.90;;;;;;4997190;28;20184;-72
2021/10/02 13:18:24;;;;;;;2.30;1.70;;;18.90;99.90;;;;;;4995892;28;20211;-70
2021/10/02 13:20:54;;;;;;;1.97;1.77;;;18.70;99.90;;;;;;4997249;28;20422;-72
2021/10/02 13:23:27;;;;;;;2.00;1.80;;;18.60;99.90;;;;;;4996213;28;20412;-71
2021/10/02 13:25:55;;;;;;;2.10;1.70;;;18.50;99.90;;;;;;4995668;28;20435;-71
2021/10/02 13:28:32;;;;;;;2.23;1.97;;;18.40;99.90;;;;;;4995677;28;20773;-72
2021/10/02 13:31:07;;;;;;;3.30;1.80;;;18.30;99.90;;;;;;4996963;28;21030;-69
2021/10/02 13:33:40;;;;;;;2.80;1.90;;;18.30;99.90;;;;;;4996821;28;20899;-70
2021/10/02 13:36:07;;;;;;;1.70;1.60;;;18.30;99.90;;;;;;4996813;28;20431;-71
2021/10/02 13:38:38;;;;;;;4.77;1.67;;;18.30;99.90;;;;;;4997146;28;20955;-71
2021/10/02 13:41:12;;;;;;;1.80;1.60;;;18.20;99.90;;;;;;4996876;28;20423;-72
2021/10/02 13:43:52;;;;;;;1.87;1.50;;;18.20;99.90;;;;;;4996467;28;20438;-69
2021/10/02 13:46:29;;;;;;;2.23;1.70;;;18.30;99.90;;;;;;4994543;28;20419;-69
2021/10/02 13:48:56;;;;;;;1.87;1.77;;;18.30;99.90;;;;;;4996311;28;20541;-71
2021/10/02 13:51:22;;;;;;;2.57;2.00;;;18.20;99.90;;;;;;4995964;28;20447;-72
2021/10/02 13:53:47;;;;;;;2.13;1.93;;;18.20;99.90;;;;;;4996204;28;20418;-70
2021/10/02 13:56:13;;;;;;;2.57;1.90;;;18.00;99.90;;;;;;4995433;28;20626;-70
2021/10/02 13:58:39;;;;;;;2.17;1.73;;;17.90;99.90;;;;;;4996435;28;20300;-70